首页
METAR-TAF:

METAR-TAF

机场 :

Shawbury, 英格兰

纬度: 52-48N, 经度: 002-40W, 海拔: 76米

当前天气观测

该预报发布于48分钟前的15:50 UTC
风速10节,风向西北
温度 11°C
湿度 71%
气压 1014 hPa
能见度10公里或以上
少量云层高于3200英尺
散云层高于5000英尺

METAR: EGOS 021550Z 31010KT 9999 FEW032 SCT050 11/06 Q1014 NOSIG RMK BLU BLU

时间: 17:38 (16:38 UTC)

预报

该预报发布于3小时和2分钟前的13:36 UTC
预报有效从02日的 15点(UTC)到 02日的 18点(UTC)
风速12节,风向西
能见度10公里或以上
散云层高于2500英尺
几率 30% :
短暂存在
从 02日的 15点(UTC)到 02日的 16点(UTC)
风速15节,风向西,有时为25节阵风
散云层高于2400英尺

TAF: EGOS 021336Z 0215/0218 28012KT 9999 SCT025 PROB30 TEMPO 0215/0216 28015G25KT SCT024

超过4000个机场的气象观测和天气预报(METAR&TAF报告)。

可查询的气象台以黄色和红色小点在地图上表示。

将鼠标移到小点上方,可查看气象台名称。

然后点击查看天气观测和预报。

如需切换地图:点击带黑十字的绿色按钮放大地图;点击带横线的绿色按钮缩小地图;或者点击绿色箭头查看邻近地区的地图。


METAR-TAF: